createdAt,value
2022-09-06T00:00:28.318Z,19.04
2022-09-06T00:02:57.025Z,19.09
2022-09-06T00:05:25.466Z,19.17
2022-09-06T00:07:53.463Z,19.11
2022-09-06T00:10:21.943Z,19.06
2022-09-06T00:12:50.142Z,19.12
2022-09-06T00:15:19.048Z,19.05
2022-09-06T00:17:48.920Z,19.00
2022-09-06T00:20:17.454Z,19.03
2022-09-06T00:22:45.475Z,19.00
2022-09-06T00:25:13.864Z,18.89
2022-09-06T00:27:42.364Z,18.72
2022-09-06T00:30:12.332Z,18.75
2022-09-06T00:32:41.224Z,18.67
2022-09-06T00:35:10.967Z,18.58
2022-09-06T00:37:38.944Z,18.44
2022-09-06T00:40:08.511Z,18.50
2022-09-06T00:42:36.616Z,18.52
2022-09-06T00:45:05.700Z,18.54
2022-09-06T00:47:35.717Z,18.58
2022-09-06T00:50:06.009Z,18.52
2022-09-06T00:52:36.954Z,18.51
2022-09-06T00:55:07.657Z,18.44
2022-09-06T00:57:35.939Z,18.41
2022-09-06T01:00:06.984Z,18.40
2022-09-06T01:02:35.199Z,18.44
2022-09-06T01:05:04.887Z,18.29
2022-09-06T01:07:49.160Z,18.27
2022-09-06T01:10:37.487Z,18.20
2022-09-06T01:13:14.861Z,18.05
2022-09-06T01:15:54.573Z,18.02
2022-09-06T01:18:33.244Z,17.95
2022-09-06T01:21:41.424Z,17.99
2022-09-06T01:24:35.690Z,17.85
2022-09-06T01:27:35.183Z,17.77
2022-09-06T01:30:07.369Z,17.71
2022-09-06T01:32:43.073Z,17.69
2022-09-06T01:35:19.491Z,17.60
2022-09-06T01:37:48.500Z,17.51
2022-09-06T01:40:17.200Z,17.57
2022-09-06T01:42:49.363Z,17.54
2022-09-06T01:45:21.996Z,17.49
2022-09-06T01:48:00.996Z,17.56
2022-09-06T01:50:45.622Z,17.53
2022-09-06T01:53:24.553Z,17.47
2022-09-06T01:56:00.280Z,17.51
2022-09-06T01:58:53.251Z,17.35
2022-09-06T02:01:29.179Z,17.41
2022-09-06T02:04:05.206Z,17.39
2022-09-06T02:06:39.115Z,17.39
2022-09-06T02:09:10.256Z,17.22
2022-09-06T02:11:44.096Z,17.38
2022-09-06T02:14:18.231Z,17.16
2022-09-06T02:16:52.614Z,17.14
2022-09-06T02:19:25.973Z,17.18
2022-09-06T02:21:55.841Z,17.10
2022-09-06T02:24:30.582Z,16.96
2022-09-06T02:26:59.506Z,16.91
2022-09-06T02:29:27.737Z,16.80
2022-09-06T02:32:02.753Z,16.77
2022-09-06T02:34:31.298Z,16.74
2022-09-06T02:37:00.003Z,16.79
2022-09-06T02:39:28.223Z,16.61
2022-09-06T02:41:56.973Z,16.67
2022-09-06T02:44:25.180Z,16.76
2022-09-06T02:46:56.999Z,16.81
2022-09-06T02:49:26.727Z,16.96
2022-09-06T02:51:55.224Z,16.88
2022-09-06T02:54:23.204Z,16.85
2022-09-06T02:56:52.474Z,16.86
2022-09-06T02:59:20.785Z,16.87
2022-09-06T03:01:48.848Z,16.86
2022-09-06T03:04:16.844Z,16.96
2022-09-06T03:06:46.655Z,17.01
2022-09-06T03:09:14.906Z,17.15
2022-09-06T03:11:43.295Z,17.26
2022-09-06T03:14:11.180Z,17.24
2022-09-06T03:16:39.672Z,17.21
2022-09-06T03:19:07.443Z,17.18
2022-09-06T03:21:35.981Z,17.31
2022-09-06T03:24:05.583Z,17.21
2022-09-06T03:26:33.512Z,17.16
2022-09-06T03:29:01.301Z,17.17
2022-09-06T03:31:29.431Z,17.28
2022-09-06T03:33:57.179Z,17.25
2022-09-06T03:36:25.309Z,17.31
2022-09-06T03:38:54.032Z,17.29
2022-09-06T03:41:23.499Z,17.23
2022-09-06T03:43:51.260Z,17.12
2022-09-06T03:46:19.445Z,17.18
2022-09-06T03:48:47.255Z,17.16
2022-09-06T03:51:15.836Z,17.20
2022-09-06T03:53:43.625Z,17.15
2022-09-06T03:56:11.742Z,17.07
2022-09-06T03:58:40.836Z,17.02
2022-09-06T04:01:10.434Z,17.00
2022-09-06T04:03:39.687Z,17.05
2022-09-06T04:06:08.367Z,17.00
2022-09-06T04:08:38.127Z,16.90
2022-09-06T04:11:07.078Z,16.91
2022-09-06T04:13:35.849Z,17.08
2022-09-06T04:16:05.968Z,17.03
2022-09-06T04:18:34.697Z,17.11
2022-09-06T04:21:02.804Z,17.09
2022-09-06T04:23:31.188Z,17.27
2022-09-06T04:26:00.704Z,17.27
2022-09-06T04:28:29.145Z,17.38
2022-09-06T04:31:04.028Z,17.34
2022-09-06T04:33:35.590Z,17.38
2022-09-06T04:36:05.465Z,17.38
2022-09-06T04:38:38.193Z,17.39
2022-09-06T04:41:07.130Z,17.42
2022-09-06T04:43:34.903Z,17.44
2022-09-06T04:46:19.667Z,17.52
2022-09-06T04:48:49.166Z,17.52
2022-09-06T04:51:16.972Z,17.61
2022-09-06T04:53:45.097Z,17.64
2022-09-06T04:56:15.940Z,17.86
2022-09-06T04:58:44.588Z,17.96
2022-09-06T05:01:12.410Z,17.95
2022-09-06T05:03:40.577Z,18.05
2022-09-06T05:06:12.768Z,18.31
2022-09-06T05:08:42.015Z,18.52
2022-09-06T05:11:10.981Z,18.73
2022-09-06T05:13:39.712Z,18.81
2022-09-06T05:16:08.661Z,18.80
2022-09-06T05:18:37.340Z,18.87
2022-09-06T05:21:05.304Z,19.03
2022-09-06T05:23:35.043Z,19.18
2022-09-06T05:26:03.369Z,19.15
2022-09-06T05:28:31.466Z,19.13
2022-09-06T05:31:09.821Z,19.14
2022-09-06T05:33:38.523Z,19.33
2022-09-06T05:36:07.616Z,19.43
2022-09-06T05:38:37.159Z,19.69
2022-09-06T05:41:06.156Z,19.84
2022-09-06T05:43:33.933Z,19.77
2022-09-06T05:46:01.803Z,19.99
2022-09-06T05:48:34.627Z,20.30
2022-09-06T05:51:06.403Z,20.60
2022-09-06T05:53:40.793Z,20.95
2022-09-06T05:56:09.573Z,21.07
2022-09-06T05:58:38.580Z,21.08
2022-09-06T06:01:17.138Z,21.06
2022-09-06T06:03:51.997Z,20.87
2022-09-06T06:06:20.575Z,20.92
2022-09-06T06:08:50.341Z,21.14
2022-09-06T06:11:18.909Z,21.46
2022-09-06T06:13:47.488Z,21.77
2022-09-06T06:16:17.374Z,22.14
2022-09-06T06:18:51.299Z,22.76
2022-09-06T06:21:21.647Z,23.39
2022-09-06T06:23:53.738Z,23.76
2022-09-06T06:26:21.589Z,24.90
2022-09-06T06:28:50.128Z,25.43
2022-09-06T06:31:19.383Z,25.98
2022-09-06T06:33:47.479Z,26.72
2022-09-06T06:36:21.835Z,27.16
2022-09-06T06:38:53.043Z,28.49
2022-09-06T06:41:23.965Z,28.52
2022-09-06T06:43:54.026Z,28.23
2022-09-06T06:46:23.475Z,27.28
2022-09-06T06:48:54.739Z,26.76
2022-09-06T06:51:25.235Z,26.51
2022-09-06T06:53:54.702Z,28.23
2022-09-06T06:56:24.085Z,28.26
2022-09-06T06:58:54.209Z,27.40
2022-09-06T07:01:23.348Z,27.07
2022-09-06T07:03:51.860Z,28.02
2022-09-06T07:06:21.233Z,29.22
2022-09-06T07:08:50.017Z,28.83
2022-09-06T07:11:21.732Z,27.92
2022-09-06T07:13:52.519Z,28.38
2022-09-06T07:16:22.121Z,27.93
2022-09-06T07:18:53.351Z,27.39
2022-09-06T07:21:41.385Z,27.56
2022-09-06T07:24:10.076Z,28.17
2022-09-06T07:26:40.650Z,28.85
2022-09-06T07:29:10.053Z,27.74
2022-09-06T07:34:28.727Z,27.89
2022-09-06T07:36:57.045Z,28.39
2022-09-06T07:39:25.192Z,30.19
2022-09-06T07:41:54.397Z,33.36
2022-09-06T07:44:22.588Z,32.28
2022-09-06T07:46:52.625Z,32.18
2022-09-06T07:49:21.226Z,30.00
2022-09-06T07:51:49.414Z,28.10
2022-09-06T07:54:33.325Z,27.19
2022-09-06T07:57:03.864Z,26.19
2022-09-06T07:59:32.000Z,25.87
2022-09-06T08:01:59.805Z,26.00
2022-09-06T08:04:27.945Z,26.02
2022-09-06T08:09:45.147Z,27.28
2022-09-06T08:12:14.293Z,28.32
2022-09-06T08:14:42.229Z,28.45
2022-09-06T08:17:10.026Z,27.58
2022-09-06T08:19:37.808Z,26.99
2022-09-06T08:22:05.677Z,26.73
2022-09-06T08:24:36.087Z,26.36
2022-09-06T08:27:07.811Z,25.93
2022-09-06T08:29:37.313Z,25.65
2022-09-06T08:32:05.133Z,25.40
2022-09-06T08:34:33.804Z,25.43
2022-09-06T08:37:01.627Z,25.83
2022-09-06T08:39:29.895Z,28.01
2022-09-06T08:42:01.981Z,27.97
2022-09-06T08:47:25.786Z,26.76
2022-09-06T08:49:57.545Z,26.57
2022-09-06T08:52:49.554Z,26.94
2022-09-06T08:55:36.951Z,26.48
2022-09-06T08:58:20.630Z,26.36
2022-09-06T09:00:53.585Z,26.34
2022-09-06T09:03:25.647Z,27.32
2022-09-06T09:05:55.393Z,27.30
2022-09-06T09:08:28.888Z,27.52
2022-09-06T09:11:02.408Z,26.98
2022-09-06T09:13:36.110Z,26.74
2022-09-06T09:16:03.934Z,27.07
2022-09-06T09:18:36.305Z,27.28
2022-09-06T09:21:04.359Z,27.08
2022-09-06T09:23:32.403Z,26.29
2022-09-06T09:26:06.751Z,26.26
2022-09-06T09:28:35.468Z,26.70
2022-09-06T09:31:04.244Z,26.70
2022-09-06T09:33:37.402Z,27.01
2022-09-06T09:36:09.203Z,27.18
2022-09-06T09:38:43.798Z,27.48
2022-09-06T09:41:24.962Z,27.19
2022-09-06T09:44:03.680Z,26.96
2022-09-06T09:46:34.199Z,27.44
2022-09-06T09:49:07.522Z,27.92
2022-09-06T09:51:37.017Z,27.06
2022-09-06T09:54:07.111Z,26.55
2022-09-06T09:56:40.425Z,27.25
2022-09-06T09:59:19.590Z,27.89
2022-09-06T10:01:47.343Z,28.61
2022-09-06T10:07:14.453Z,29.12
2022-09-06T10:09:47.840Z,29.37
2022-09-06T10:12:19.946Z,29.80
2022-09-06T10:14:49.891Z,29.10
2022-09-06T10:17:29.124Z,27.94
2022-09-06T10:20:06.727Z,28.95
2022-09-06T10:22:48.054Z,29.43
2022-09-06T10:25:44.051Z,29.83
2022-09-06T10:28:29.744Z,29.71
2022-09-06T10:31:11.071Z,29.25
2022-09-06T10:33:50.771Z,29.00
2022-09-06T10:36:26.135Z,30.13
2022-09-06T10:39:01.690Z,31.29
2022-09-06T10:41:49.699Z,32.91
2022-09-06T10:44:31.971Z,32.14
2022-09-06T10:47:12.611Z,32.28
2022-09-06T10:49:45.428Z,31.41
2022-09-06T10:52:20.386Z,31.13
2022-09-06T10:54:48.440Z,32.12
2022-09-06T11:00:13.703Z,31.62
2022-09-06T11:02:48.566Z,32.03
2022-09-06T11:11:08.697Z,35.61
2022-09-06T11:13:36.608Z,35.57
2022-09-06T11:16:09.093Z,35.10
2022-09-06T11:18:43.014Z,35.11
2022-09-06T11:21:38.542Z,33.82
2022-09-06T11:24:13.609Z,34.09
2022-09-06T11:26:46.258Z,34.95
2022-09-06T11:29:24.027Z,35.42
2022-09-06T11:34:54.022Z,34.72
2022-09-06T11:37:27.218Z,33.82
2022-09-06T11:43:17.398Z,32.89
2022-09-06T11:45:49.068Z,33.03
2022-09-06T11:48:46.527Z,33.10
2022-09-06T11:51:33.908Z,32.93
2022-09-06T11:54:07.331Z,32.03
2022-09-06T11:56:42.459Z,32.30
2022-09-06T11:59:22.431Z,31.46
2022-09-06T12:02:02.647Z,31.51
2022-09-06T12:05:09.345Z,31.06
2022-09-06T12:07:38.660Z,31.47
2022-09-06T12:10:40.008Z,31.09
2022-09-06T12:13:44.226Z,30.69
2022-09-06T12:16:12.995Z,31.08
2022-09-06T12:19:01.271Z,31.11
2022-09-06T12:21:42.812Z,30.81
2022-09-06T12:24:49.115Z,30.93
2022-09-06T12:27:18.273Z,31.34
2022-09-06T12:29:58.059Z,31.74
2022-09-06T12:32:31.704Z,30.22
2022-09-06T12:37:56.993Z,30.82
2022-09-06T12:40:29.374Z,30.67
2022-09-06T12:42:58.054Z,30.40
2022-09-06T12:45:27.844Z,30.38
2022-09-06T12:48:07.106Z,30.98
2022-09-06T12:50:35.127Z,31.72
2022-09-06T12:53:05.737Z,32.33
2022-09-06T12:55:35.292Z,32.70
2022-09-06T12:58:08.022Z,32.75
2022-09-06T13:00:41.488Z,32.05
2022-09-06T13:03:30.612Z,32.38
2022-09-06T13:06:01.611Z,32.01
2022-09-06T13:08:36.066Z,31.40
2022-09-06T13:11:10.492Z,31.12
2022-09-06T13:13:38.875Z,30.50
2022-09-06T13:16:08.094Z,30.69
2022-09-06T13:18:38.363Z,31.37
2022-09-06T13:21:08.205Z,30.98
2022-09-06T13:23:42.726Z,31.11
2022-09-06T13:26:10.539Z,31.35
2022-09-06T13:28:39.011Z,31.70
2022-09-06T13:31:10.770Z,31.79
2022-09-06T13:33:39.458Z,30.96
2022-09-06T13:36:20.637Z,30.45
2022-09-06T13:38:48.832Z,31.05
2022-09-06T13:41:40.939Z,31.56
2022-09-06T13:44:20.066Z,30.96
2022-09-06T13:46:53.450Z,30.78
2022-09-06T13:49:21.226Z,30.14
2022-09-06T13:51:48.904Z,30.50
2022-09-06T13:54:17.400Z,29.76
2022-09-06T13:56:45.646Z,30.04
2022-09-06T13:59:14.025Z,30.43
2022-09-06T14:01:44.135Z,30.39
2022-09-06T14:04:16.581Z,30.36
2022-09-06T14:06:44.353Z,30.74
2022-09-06T14:09:12.761Z,30.01
2022-09-06T14:11:42.889Z,30.79
2022-09-06T14:14:14.424Z,31.11
2022-09-06T14:16:42.235Z,30.99
2022-09-06T14:19:10.388Z,30.94
2022-09-06T14:21:39.596Z,31.14
2022-09-06T14:24:08.208Z,31.33
2022-09-06T14:26:38.683Z,31.28
2022-09-06T14:29:07.245Z,30.92
2022-09-06T14:31:35.088Z,30.54
2022-09-06T14:34:04.040Z,30.25
2022-09-06T14:36:33.234Z,30.40
2022-09-06T14:39:03.116Z,30.27
2022-09-06T14:41:31.659Z,30.28
2022-09-06T14:44:00.612Z,30.17
2022-09-06T14:46:30.127Z,30.03
2022-09-06T14:48:59.314Z,29.73
2022-09-06T14:51:27.351Z,29.65
2022-09-06T14:53:57.596Z,29.54
2022-09-06T14:56:27.796Z,29.14
2022-09-06T14:58:57.418Z,28.96
2022-09-06T15:01:29.002Z,28.94
2022-09-06T15:03:59.673Z,29.16
2022-09-06T15:06:29.018Z,28.87
2022-09-06T15:08:59.523Z,28.86
2022-09-06T15:11:34.774Z,29.13
2022-09-06T15:14:04.006Z,29.56
2022-09-06T15:16:33.074Z,28.89
2022-09-06T15:19:02.712Z,29.25
2022-09-06T15:21:31.190Z,29.23
2022-09-06T15:23:59.849Z,29.44
2022-09-06T15:26:27.990Z,29.45
2022-09-06T15:28:57.371Z,29.05
2022-09-06T15:31:25.563Z,29.16
2022-09-06T15:33:53.909Z,29.13
2022-09-06T15:36:22.525Z,29.08
2022-09-06T15:38:54.239Z,28.74
2022-09-06T15:41:25.277Z,28.70
2022-09-06T15:43:55.585Z,28.85
2022-09-06T15:46:45.109Z,28.48
2022-09-06T15:49:15.773Z,28.48
2022-09-06T15:51:43.722Z,28.95
2022-09-06T15:54:13.214Z,28.85
2022-09-06T15:56:41.339Z,28.25
2022-09-06T15:59:09.794Z,28.03
2022-09-06T16:01:40.112Z,28.04
2022-09-06T16:04:08.556Z,28.17
2022-09-06T16:06:38.784Z,28.24
2022-09-06T16:09:09.658Z,27.74
2022-09-06T16:11:38.270Z,27.73
2022-09-06T16:14:07.615Z,27.76
2022-09-06T16:16:36.088Z,27.91
2022-09-06T16:19:05.743Z,27.96
2022-09-06T16:21:35.231Z,27.85
2022-09-06T16:24:06.205Z,27.62
2022-09-06T16:26:36.299Z,27.55
2022-09-06T16:29:07.514Z,27.61
2022-09-06T16:31:39.958Z,27.44
2022-09-06T16:34:10.597Z,27.25
2022-09-06T16:36:38.435Z,27.15
2022-09-06T16:39:08.125Z,27.15
2022-09-06T16:41:39.984Z,27.27
2022-09-06T16:44:08.457Z,27.38
2022-09-06T16:46:36.449Z,27.20
2022-09-06T16:49:04.797Z,27.14
2022-09-06T16:51:33.977Z,27.25
2022-09-06T16:54:02.434Z,27.08
2022-09-06T16:56:33.572Z,27.01
2022-09-06T16:59:04.683Z,26.81
2022-09-06T17:01:33.424Z,26.85
2022-09-06T17:04:02.492Z,26.82
2022-09-06T17:06:30.736Z,26.81
2022-09-06T17:09:01.080Z,26.69
2022-09-06T17:11:29.867Z,26.66
2022-09-06T17:13:59.035Z,26.46
2022-09-06T17:16:44.447Z,26.22
2022-09-06T17:19:13.574Z,26.31
2022-09-06T17:21:41.836Z,26.18
2022-09-06T17:24:11.655Z,26.14
2022-09-06T17:26:41.033Z,25.95
2022-09-06T17:29:09.553Z,25.73
2022-09-06T17:31:38.183Z,25.65
2022-09-06T17:34:07.124Z,25.73
2022-09-06T17:36:36.443Z,25.55
2022-09-06T17:39:06.458Z,25.62
2022-09-06T17:41:38.920Z,25.52
2022-09-06T17:44:07.639Z,25.37
2022-09-06T17:46:35.469Z,25.26
2022-09-06T17:49:05.643Z,25.08
2022-09-06T17:51:34.238Z,24.86
2022-09-06T17:54:02.443Z,24.74
2022-09-06T17:56:31.075Z,24.56
2022-09-06T17:59:01.860Z,24.34
2022-09-06T18:01:32.056Z,24.15
2022-09-06T18:04:00.778Z,24.12
2022-09-06T18:06:30.555Z,24.07
2022-09-06T18:09:03.322Z,24.04
2022-09-06T18:11:33.897Z,23.95
2022-09-06T18:14:05.388Z,23.82
2022-09-06T18:16:34.857Z,23.73
2022-09-06T18:19:04.626Z,23.63
2022-09-06T18:21:48.567Z,23.55
2022-09-06T18:24:17.070Z,23.44
2022-09-06T18:26:45.982Z,23.40
2022-09-06T18:29:18.287Z,23.41
2022-09-06T18:31:46.260Z,23.33
2022-09-06T18:34:16.278Z,23.08
2022-09-06T18:36:44.144Z,22.94
2022-09-06T18:39:13.502Z,22.94
2022-09-06T18:41:58.655Z,22.93
2022-09-06T18:44:32.300Z,22.85
2022-09-06T18:47:02.058Z,22.95
2022-09-06T18:49:30.835Z,22.85
2022-09-06T18:51:58.992Z,22.70
2022-09-06T18:54:27.385Z,22.64
2022-09-06T18:56:55.299Z,22.69
2022-09-06T18:59:23.651Z,22.53
2022-09-06T19:01:53.027Z,22.50
2022-09-06T19:04:21.453Z,22.42
2022-09-06T19:06:49.444Z,22.46
2022-09-06T19:09:18.194Z,22.36
2022-09-06T19:11:49.259Z,22.30
2022-09-06T19:14:17.178Z,22.20
2022-09-06T19:16:45.388Z,22.19
2022-09-06T19:19:14.668Z,22.16
2022-09-06T19:26:56.246Z,22.16
2022-09-06T19:29:24.134Z,22.01
2022-09-06T19:31:52.992Z,22.06
2022-09-06T19:34:22.802Z,22.13
2022-09-06T19:36:55.049Z,22.05
2022-09-06T19:39:22.937Z,22.01
2022-09-06T19:41:51.044Z,21.89
2022-09-06T19:44:20.717Z,21.96
2022-09-06T19:46:49.200Z,21.91
2022-09-06T19:49:19.505Z,21.92
2022-09-06T19:51:50.860Z,21.83
2022-09-06T19:54:19.801Z,21.93
2022-09-06T19:56:48.090Z,21.83
2022-09-06T19:59:17.990Z,21.76
2022-09-06T20:01:47.231Z,21.79
2022-09-06T20:04:16.110Z,21.73
2022-09-06T20:06:43.961Z,21.75
2022-09-06T20:09:15.766Z,21.77
2022-09-06T20:11:44.012Z,21.64
2022-09-06T20:14:13.433Z,21.66
2022-09-06T20:16:42.606Z,21.70
2022-09-06T20:19:12.304Z,21.58
2022-09-06T20:21:40.196Z,21.52
2022-09-06T20:24:08.791Z,21.42
2022-09-06T20:26:38.194Z,21.33
2022-09-06T20:29:07.353Z,21.38
2022-09-06T20:31:37.492Z,21.36
2022-09-06T20:34:06.885Z,21.19
2022-09-06T20:36:34.869Z,21.16
2022-09-06T20:39:03.361Z,21.18
2022-09-06T20:41:32.091Z,21.07
2022-09-06T20:44:01.788Z,21.11
2022-09-06T20:46:31.411Z,20.98
2022-09-06T20:49:04.866Z,21.08
2022-09-06T20:51:33.984Z,21.00
2022-09-06T20:54:03.343Z,20.91
2022-09-06T20:56:35.322Z,20.80
2022-09-06T20:59:07.318Z,20.83
2022-09-06T21:01:37.390Z,20.78
2022-09-06T21:04:07.743Z,20.80
2022-09-06T21:06:36.816Z,20.78
2022-09-06T21:09:05.982Z,20.61
2022-09-06T21:11:34.198Z,20.60
2022-09-06T21:14:02.679Z,20.55
2022-09-06T21:16:32.198Z,20.44
2022-09-06T21:19:02.232Z,20.43
2022-09-06T21:21:32.405Z,20.36
2022-09-06T21:24:01.578Z,20.38
2022-09-06T21:26:29.926Z,20.32
2022-09-06T21:28:58.305Z,20.24
2022-09-06T21:31:28.084Z,20.23
2022-09-06T21:33:58.983Z,20.12
2022-09-06T21:36:29.853Z,20.10
2022-09-06T21:38:59.493Z,19.99
2022-09-06T21:41:28.881Z,19.96
2022-09-06T21:43:58.531Z,19.83
2022-09-06T21:46:32.595Z,19.80
2022-09-06T21:49:05.061Z,19.71
2022-09-06T21:51:33.439Z,19.73
2022-09-06T21:54:04.661Z,19.77
2022-09-06T21:56:33.912Z,19.69
2022-09-06T21:59:02.144Z,19.70
2022-09-06T22:01:33.231Z,19.73
2022-09-06T22:04:03.376Z,19.72
2022-09-06T22:06:32.759Z,19.63
2022-09-06T22:09:03.941Z,19.52
2022-09-06T22:11:34.984Z,19.56
2022-09-06T22:14:05.435Z,19.59
2022-09-06T22:16:35.307Z,19.64
2022-09-06T22:19:06.064Z,19.66
2022-09-06T22:21:34.644Z,19.60
2022-09-06T22:24:04.958Z,19.49
2022-09-06T22:26:35.263Z,19.46
2022-09-06T22:29:05.382Z,19.37
2022-09-06T22:31:35.486Z,19.16
2022-09-06T22:34:05.444Z,19.25
2022-09-06T22:36:33.608Z,19.26
2022-09-06T22:39:01.891Z,19.29
2022-09-06T22:41:32.254Z,19.28
2022-09-06T22:44:01.422Z,19.26
2022-09-06T22:46:29.723Z,19.16
2022-09-06T22:48:57.846Z,19.09
2022-09-06T22:51:27.133Z,19.07
2022-09-06T22:53:55.281Z,19.07
2022-09-06T22:56:23.193Z,19.03
2022-09-06T22:58:51.416Z,19.06
2022-09-06T23:01:19.386Z,19.04
2022-09-06T23:03:48.446Z,19.01
2022-09-06T23:06:16.418Z,18.95
2022-09-06T23:08:46.056Z,18.89
2022-09-06T23:11:15.599Z,18.89
2022-09-06T23:13:44.416Z,18.72
2022-09-06T23:16:14.136Z,18.60
2022-09-06T23:18:42.555Z,18.56
2022-09-06T23:21:12.070Z,18.53
2022-09-06T23:23:40.959Z,18.47
2022-09-06T23:26:12.779Z,18.51
2022-09-06T23:28:41.534Z,18.62
2022-09-06T23:31:11.764Z,18.73
2022-09-06T23:33:40.680Z,18.74
2022-09-06T23:36:10.855Z,18.60
2022-09-06T23:38:40.805Z,18.59
2022-09-06T23:41:10.726Z,18.63
2022-09-06T23:43:39.847Z,18.63
2022-09-06T23:46:08.158Z,18.59
2022-09-06T23:48:36.785Z,18.55
2022-09-06T23:51:05.222Z,18.56
2022-09-06T23:53:34.077Z,18.61
2022-09-06T23:56:02.277Z,18.58
2022-09-06T23:58:31.897Z,18.63
